sensor_id;sensor_type;location;lat;lon;timestamp;P1;durP1;ratioP1;P2;durP2;ratioP2
6077;SDS011;3067;49.470;10.394;2022-10-18T00:01:23;6.03;;;5.43;;
6077;SDS011;3067;49.470;10.394;2022-10-18T00:03:50;15.40;;;5.77;;
6077;SDS011;3067;49.470;10.394;2022-10-18T00:06:17;8.33;;;5.80;;
6077;SDS011;3067;49.470;10.394;2022-10-18T00:08:45;13.03;;;5.77;;
6077;SDS011;3067;49.470;10.394;2022-10-18T00:11:12;9.70;;;6.00;;
6077;SDS011;3067;49.470;10.394;2022-10-18T00:13:39;9.80;;;5.43;;
6077;SDS011;3067;49.470;10.394;2022-10-18T00:16:11;12.93;;;5.93;;
6077;SDS011;3067;49.470;10.394;2022-10-18T00:18:38;17.43;;;6.07;;
6077;SDS011;3067;49.470;10.394;2022-10-18T00:21:06;14.43;;;6.30;;
6077;SDS011;3067;49.470;10.394;2022-10-18T00:23:35;10.83;;;6.20;;
6077;SDS011;3067;49.470;10.394;2022-10-18T00:26:03;7.60;;;5.80;;
6077;SDS011;3067;49.470;10.394;2022-10-18T00:28:30;14.67;;;5.40;;
6077;SDS011;3067;49.470;10.394;2022-10-18T00:31:07;9.90;;;5.70;;
6077;SDS011;3067;49.470;10.394;2022-10-18T00:33:36;11.00;;;6.27;;
6077;SDS011;3067;49.470;10.394;2022-10-18T00:36:03;10.90;;;5.70;;
6077;SDS011;3067;49.470;10.394;2022-10-18T00:38:31;6.60;;;5.90;;
6077;SDS011;3067;49.470;10.394;2022-10-18T00:40:58;13.00;;;5.70;;
6077;SDS011;3067;49.470;10.394;2022-10-18T00:43:25;14.30;;;5.93;;
6077;SDS011;3067;49.470;10.394;2022-10-18T00:45:52;6.00;;;5.40;;
6077;SDS011;3067;49.470;10.394;2022-10-18T00:48:20;5.80;;;5.30;;
6077;SDS011;3067;49.470;10.394;2022-10-18T00:50:49;8.77;;;5.80;;
6077;SDS011;3067;49.470;10.394;2022-10-18T00:53:17;8.07;;;6.00;;
6077;SDS011;3067;49.470;10.394;2022-10-18T00:55:45;13.60;;;6.10;;
6077;SDS011;3067;49.470;10.394;2022-10-18T00:58:14;7.73;;;6.60;;
6077;SDS011;3067;49.470;10.394;2022-10-18T01:00:42;9.60;;;6.73;;
6077;SDS011;3067;49.470;10.394;2022-10-18T01:03:09;15.70;;;7.13;;
6077;SDS011;3067;49.470;10.394;2022-10-18T01:05:38;9.50;;;6.30;;
6077;SDS011;3067;49.470;10.394;2022-10-18T01:08:16;14.47;;;6.43;;
6077;SDS011;3067;49.470;10.394;2022-10-18T01:10:50;13.63;;;6.97;;
6077;SDS011;3067;49.470;10.394;2022-10-18T01:13:27;13.10;;;6.50;;
6077;SDS011;3067;49.470;10.394;2022-10-18T01:16:03;10.73;;;6.70;;
6077;SDS011;3067;49.470;10.394;2022-10-18T01:18:34;14.10;;;6.53;;
6077;SDS011;3067;49.470;10.394;2022-10-18T01:21:07;10.00;;;6.90;;
6077;SDS011;3067;49.470;10.394;2022-10-18T01:23:44;14.63;;;6.60;;
6077;SDS011;3067;49.470;10.394;2022-10-18T01:26:20;9.60;;;6.53;;
6077;SDS011;3067;49.470;10.394;2022-10-18T01:28:53;12.00;;;7.30;;
6077;SDS011;3067;49.470;10.394;2022-10-18T01:31:24;11.10;;;7.70;;
6077;SDS011;3067;49.470;10.394;2022-10-18T01:33:52;9.70;;;6.40;;
6077;SDS011;3067;49.470;10.394;2022-10-18T01:36:22;13.67;;;7.13;;
6077;SDS011;3067;49.470;10.394;2022-10-18T01:38:50;13.50;;;6.47;;
6077;SDS011;3067;49.470;10.394;2022-10-18T01:41:19;8.67;;;7.07;;
6077;SDS011;3067;49.470;10.394;2022-10-18T01:43:49;9.10;;;6.83;;
6077;SDS011;3067;49.470;10.394;2022-10-18T01:46:18;10.43;;;7.10;;
6077;SDS011;3067;49.470;10.394;2022-10-18T01:48:48;8.97;;;6.73;;
6077;SDS011;3067;49.470;10.394;2022-10-18T01:51:17;8.40;;;6.80;;
6077;SDS011;3067;49.470;10.394;2022-10-18T01:53:44;18.37;;;7.50;;
6077;SDS011;3067;49.470;10.394;2022-10-18T01:56:17;12.90;;;7.90;;
6077;SDS011;3067;49.470;10.394;2022-10-18T01:58:47;10.53;;;8.63;;
6077;SDS011;3067;49.470;10.394;2022-10-18T02:01:18;13.93;;;9.77;;
6077;SDS011;3067;49.470;10.394;2022-10-18T02:03:46;12.70;;;9.00;;
6077;SDS011;3067;49.470;10.394;2022-10-18T02:06:19;10.70;;;8.53;;
6077;SDS011;3067;49.470;10.394;2022-10-18T02:08:49;24.60;;;9.10;;
6077;SDS011;3067;49.470;10.394;2022-10-18T02:11:18;15.80;;;8.50;;
6077;SDS011;3067;49.470;10.394;2022-10-18T02:13:46;10.60;;;8.77;;
6077;SDS011;3067;49.470;10.394;2022-10-18T02:16:15;18.73;;;8.40;;
6077;SDS011;3067;49.470;10.394;2022-10-18T02:18:44;11.40;;;8.50;;
6077;SDS011;3067;49.470;10.394;2022-10-18T02:21:13;16.90;;;8.93;;
6077;SDS011;3067;49.470;10.394;2022-10-18T02:23:43;17.23;;;8.23;;
6077;SDS011;3067;49.470;10.394;2022-10-18T02:26:11;13.13;;;8.33;;
6077;SDS011;3067;49.470;10.394;2022-10-18T02:28:39;13.83;;;8.37;;
6077;SDS011;3067;49.470;10.394;2022-10-18T02:31:09;19.57;;;9.13;;
6077;SDS011;3067;49.470;10.394;2022-10-18T02:33:42;12.90;;;9.00;;
6077;SDS011;3067;49.470;10.394;2022-10-18T02:36:12;16.40;;;8.70;;
6077;SDS011;3067;49.470;10.394;2022-10-18T02:38:41;14.87;;;8.90;;
6077;SDS011;3067;49.470;10.394;2022-10-18T02:41:10;15.43;;;8.90;;
6077;SDS011;3067;49.470;10.394;2022-10-18T02:43:38;17.13;;;8.73;;
6077;SDS011;3067;49.470;10.394;2022-10-18T02:46:05;18.03;;;8.80;;
6077;SDS011;3067;49.470;10.394;2022-10-18T02:48:32;12.43;;;8.73;;
6077;SDS011;3067;49.470;10.394;2022-10-18T02:51:00;11.80;;;8.30;;
6077;SDS011;3067;49.470;10.394;2022-10-18T02:53:30;11.10;;;9.00;;
6077;SDS011;3067;49.470;10.394;2022-10-18T02:55:57;11.63;;;8.83;;
6077;SDS011;3067;49.470;10.394;2022-10-18T02:58:26;13.10;;;8.50;;
6077;SDS011;3067;49.470;10.394;2022-10-18T03:00:53;20.43;;;8.40;;
6077;SDS011;3067;49.470;10.394;2022-10-18T03:03:21;10.03;;;8.37;;
6077;SDS011;3067;49.470;10.394;2022-10-18T03:05:48;16.10;;;8.13;;
6077;SDS011;3067;49.470;10.394;2022-10-18T03:08:15;16.07;;;7.40;;
6077;SDS011;3067;49.470;10.394;2022-10-18T03:10:43;11.53;;;7.37;;
6077;SDS011;3067;49.470;10.394;2022-10-18T03:13:10;8.43;;;7.53;;
6077;SDS011;3067;49.470;10.394;2022-10-18T03:15:38;9.23;;;7.23;;
6077;SDS011;3067;49.470;10.394;2022-10-18T03:18:06;10.20;;;7.13;;
6077;SDS011;3067;49.470;10.394;2022-10-18T03:20:33;8.70;;;7.00;;
6077;SDS011;3067;49.470;10.394;2022-10-18T03:23:01;9.90;;;7.13;;
6077;SDS011;3067;49.470;10.394;2022-10-18T03:25:28;7.70;;;6.83;;
6077;SDS011;3067;49.470;10.394;2022-10-18T03:27:55;10.63;;;6.87;;
6077;SDS011;3067;49.470;10.394;2022-10-18T03:30:23;11.43;;;7.20;;
6077;SDS011;3067;49.470;10.394;2022-10-18T03:32:51;15.63;;;7.10;;
6077;SDS011;3067;49.470;10.394;2022-10-18T03:35:19;11.57;;;7.93;;
6077;SDS011;3067;49.470;10.394;2022-10-18T03:37:46;22.43;;;8.87;;
6077;SDS011;3067;49.470;10.394;2022-10-18T03:40:13;14.23;;;7.80;;
6077;SDS011;3067;49.470;10.394;2022-10-18T03:42:41;10.13;;;8.67;;
6077;SDS011;3067;49.470;10.394;2022-10-18T03:45:08;11.93;;;7.70;;
6077;SDS011;3067;49.470;10.394;2022-10-18T03:47:35;14.97;;;7.17;;
6077;SDS011;3067;49.470;10.394;2022-10-18T03:50:04;12.23;;;6.83;;
6077;SDS011;3067;49.470;10.394;2022-10-18T03:52:32;8.53;;;6.53;;
6077;SDS011;3067;49.470;10.394;2022-10-18T03:54:59;7.53;;;6.40;;
6077;SDS011;3067;49.470;10.394;2022-10-18T03:57:26;8.37;;;6.27;;
6077;SDS011;3067;49.470;10.394;2022-10-18T03:59:54;14.73;;;6.63;;
6077;SDS011;3067;49.470;10.394;2022-10-18T04:02:21;8.83;;;7.67;;
6077;SDS011;3067;49.470;10.394;2022-10-18T04:04:48;13.30;;;7.00;;
6077;SDS011;3067;49.470;10.394;2022-10-18T04:07:17;12.37;;;6.80;;
6077;SDS011;3067;49.470;10.394;2022-10-18T04:09:45;10.80;;;7.10;;
6077;SDS011;3067;49.470;10.394;2022-10-18T04:12:12;10.33;;;7.23;;
6077;SDS011;3067;49.470;10.394;2022-10-18T04:14:39;17.87;;;7.17;;
6077;SDS011;3067;49.470;10.394;2022-10-18T04:17:07;19.80;;;6.87;;
6077;SDS011;3067;49.470;10.394;2022-10-18T04:19:34;9.53;;;6.70;;
6077;SDS011;3067;49.470;10.394;2022-10-18T04:22:01;8.93;;;6.57;;
6077;SDS011;3067;49.470;10.394;2022-10-18T04:24:30;8.80;;;6.60;;
6077;SDS011;3067;49.470;10.394;2022-10-18T04:26:57;8.03;;;6.97;;
6077;SDS011;3067;49.470;10.394;2022-10-18T04:29:24;8.90;;;7.07;;
6077;SDS011;3067;49.470;10.394;2022-10-18T04:31:52;9.93;;;7.40;;
6077;SDS011;3067;49.470;10.394;2022-10-18T04:34:19;7.70;;;6.70;;
6077;SDS011;3067;49.470;10.394;2022-10-18T04:36:46;8.50;;;7.40;;
6077;SDS011;3067;49.470;10.394;2022-10-18T04:39:13;9.90;;;7.30;;
6077;SDS011;3067;49.470;10.394;2022-10-18T04:41:42;9.53;;;6.60;;
6077;SDS011;3067;49.470;10.394;2022-10-18T04:44:09;17.20;;;7.20;;
6077;SDS011;3067;49.470;10.394;2022-10-18T04:46:37;11.50;;;6.80;;
6077;SDS011;3067;49.470;10.394;2022-10-18T04:49:04;11.13;;;7.40;;
6077;SDS011;3067;49.470;10.394;2022-10-18T04:51:31;14.53;;;6.80;;
6077;SDS011;3067;49.470;10.394;2022-10-18T04:53:58;9.57;;;6.80;;
6077;SDS011;3067;49.470;10.394;2022-10-18T04:56:26;16.10;;;6.57;;
6077;SDS011;3067;49.470;10.394;2022-10-18T04:58:54;15.20;;;6.93;;
6077;SDS011;3067;49.470;10.394;2022-10-18T05:01:22;22.53;;;7.53;;
6077;SDS011;3067;49.470;10.394;2022-10-18T05:03:50;9.20;;;6.37;;
6077;SDS011;3067;49.470;10.394;2022-10-18T05:06:18;16.57;;;6.93;;
6077;SDS011;3067;49.470;10.394;2022-10-18T05:08:45;14.30;;;7.20;;
6077;SDS011;3067;49.470;10.394;2022-10-18T05:11:12;8.87;;;7.50;;
6077;SDS011;3067;49.470;10.394;2022-10-18T05:13:40;12.20;;;6.33;;
6077;SDS011;3067;49.470;10.394;2022-10-18T05:16:08;12.83;;;7.80;;
6077;SDS011;3067;49.470;10.394;2022-10-18T05:18:36;8.93;;;7.43;;
6077;SDS011;3067;49.470;10.394;2022-10-18T05:21:03;12.13;;;6.80;;
6077;SDS011;3067;49.470;10.394;2022-10-18T05:23:30;7.97;;;6.40;;
6077;SDS011;3067;49.470;10.394;2022-10-18T05:25:59;7.43;;;6.73;;
6077;SDS011;3067;49.470;10.394;2022-10-18T05:28:27;17.97;;;7.17;;
6077;SDS011;3067;49.470;10.394;2022-10-18T05:30:54;14.60;;;8.23;;
6077;SDS011;3067;49.470;10.394;2022-10-18T05:33:23;10.17;;;6.50;;
6077;SDS011;3067;49.470;10.394;2022-10-18T05:35:50;8.50;;;7.60;;
6077;SDS011;3067;49.470;10.394;2022-10-18T05:38:17;10.13;;;7.30;;
6077;SDS011;3067;49.470;10.394;2022-10-18T05:40:45;10.63;;;7.03;;
6077;SDS011;3067;49.470;10.394;2022-10-18T05:43:12;17.03;;;7.87;;
6077;SDS011;3067;49.470;10.394;2022-10-18T05:45:40;14.73;;;7.90;;
6077;SDS011;3067;49.470;10.394;2022-10-18T05:48:13;17.23;;;8.50;;
6077;SDS011;3067;49.470;10.394;2022-10-18T05:50:42;19.93;;;8.73;;
6077;SDS011;3067;49.470;10.394;2022-10-18T05:53:09;14.87;;;8.40;;
6077;SDS011;3067;49.470;10.394;2022-10-18T05:55:36;8.47;;;7.50;;
6077;SDS011;3067;49.470;10.394;2022-10-18T05:58:04;15.43;;;7.60;;
6077;SDS011;3067;49.470;10.394;2022-10-18T06:00:31;16.43;;;7.20;;
6077;SDS011;3067;49.470;10.394;2022-10-18T06:02:58;10.90;;;8.60;;
6077;SDS011;3067;49.470;10.394;2022-10-18T06:05:25;15.53;;;8.33;;
6077;SDS011;3067;49.470;10.394;2022-10-18T06:07:54;13.70;;;9.13;;
6077;SDS011;3067;49.470;10.394;2022-10-18T06:10:22;17.50;;;8.97;;
6077;SDS011;3067;49.470;10.394;2022-10-18T06:12:49;21.93;;;8.20;;
6077;SDS011;3067;49.470;10.394;2022-10-18T06:15:19;17.07;;;7.17;;
6077;SDS011;3067;49.470;10.394;2022-10-18T06:17:46;13.10;;;8.80;;
6077;SDS011;3067;49.470;10.394;2022-10-18T06:20:13;17.00;;;8.43;;
6077;SDS011;3067;49.470;10.394;2022-10-18T06:22:41;12.00;;;7.83;;
6077;SDS011;3067;49.470;10.394;2022-10-18T06:25:10;16.37;;;8.70;;
6077;SDS011;3067;49.470;10.394;2022-10-18T06:27:37;27.47;;;7.97;;
6077;SDS011;3067;49.470;10.394;2022-10-18T06:30:05;12.83;;;8.23;;
6077;SDS011;3067;49.470;10.394;2022-10-18T06:32:32;10.40;;;7.80;;
6077;SDS011;3067;49.470;10.394;2022-10-18T06:35:00;11.33;;;8.50;;
6077;SDS011;3067;49.470;10.394;2022-10-18T06:37:27;31.20;;;9.60;;
6077;SDS011;3067;49.470;10.394;2022-10-18T06:39:55;12.83;;;7.90;;
6077;SDS011;3067;49.470;10.394;2022-10-18T06:42:24;14.37;;;8.60;;
6077;SDS011;3067;49.470;10.394;2022-10-18T06:44:51;17.80;;;8.20;;
6077;SDS011;3067;49.470;10.394;2022-10-18T06:47:18;14.80;;;7.33;;
6077;SDS011;3067;49.470;10.394;2022-10-18T06:49:45;11.10;;;7.70;;
6077;SDS011;3067;49.470;10.394;2022-10-18T06:52:13;15.57;;;7.47;;
6077;SDS011;3067;49.470;10.394;2022-10-18T06:54:42;12.27;;;7.00;;
6077;SDS011;3067;49.470;10.394;2022-10-18T06:57:10;8.60;;;6.80;;
6077;SDS011;3067;49.470;10.394;2022-10-18T06:59:38;10.83;;;7.13;;
6077;SDS011;3067;49.470;10.394;2022-10-18T07:02:05;7.90;;;7.13;;
6077;SDS011;3067;49.470;10.394;2022-10-18T07:04:33;11.70;;;6.30;;
6077;SDS011;3067;49.470;10.394;2022-10-18T07:07:00;7.17;;;6.50;;
6077;SDS011;3067;49.470;10.394;2022-10-18T07:09:27;7.43;;;6.10;;
6077;SDS011;3067;49.470;10.394;2022-10-18T07:11:55;7.37;;;6.20;;
6077;SDS011;3067;49.470;10.394;2022-10-18T07:14:22;17.80;;;6.60;;
6077;SDS011;3067;49.470;10.394;2022-10-18T07:16:51;8.97;;;6.33;;
6077;SDS011;3067;49.470;10.394;2022-10-18T07:19:18;6.70;;;5.63;;
6077;SDS011;3067;49.470;10.394;2022-10-18T07:21:45;6.60;;;6.00;;
6077;SDS011;3067;49.470;10.394;2022-10-18T07:24:13;10.90;;;6.00;;
6077;SDS011;3067;49.470;10.394;2022-10-18T07:26:40;15.10;;;5.90;;
6077;SDS011;3067;49.470;10.394;2022-10-18T07:29:08;8.33;;;5.30;;
6077;SDS011;3067;49.470;10.394;2022-10-18T07:31:37;5.80;;;5.30;;
6077;SDS011;3067;49.470;10.394;2022-10-18T07:34:06;5.93;;;5.07;;
6077;SDS011;3067;49.470;10.394;2022-10-18T07:36:34;5.23;;;4.83;;
6077;SDS011;3067;49.470;10.394;2022-10-18T07:39:01;8.10;;;5.77;;
6077;SDS011;3067;49.470;10.394;2022-10-18T07:41:28;8.27;;;5.30;;
6077;SDS011;3067;49.470;10.394;2022-10-18T07:43:57;8.83;;;5.97;;
6077;SDS011;3067;49.470;10.394;2022-10-18T07:46:24;10.43;;;6.17;;
6077;SDS011;3067;49.470;10.394;2022-10-18T07:48:52;10.77;;;5.90;;
6077;SDS011;3067;49.470;10.394;2022-10-18T07:51:21;6.03;;;5.10;;
6077;SDS011;3067;49.470;10.394;2022-10-18T07:53:48;13.10;;;5.70;;
6077;SDS011;3067;49.470;10.394;2022-10-18T07:56:16;5.30;;;4.90;;
6077;SDS011;3067;49.470;10.394;2022-10-18T07:58:45;10.20;;;5.33;;
6077;SDS011;3067;49.470;10.394;2022-10-18T08:01:13;8.17;;;4.63;;
6077;SDS011;3067;49.470;10.394;2022-10-18T08:03:41;12.37;;;4.70;;
6077;SDS011;3067;49.470;10.394;2022-10-18T08:06:09;7.30;;;4.23;;
6077;SDS011;3067;49.470;10.394;2022-10-18T08:08:38;6.13;;;4.50;;
6077;SDS011;3067;49.470;10.394;2022-10-18T08:11:06;7.60;;;4.10;;
6077;SDS011;3067;49.470;10.394;2022-10-18T08:13:34;11.37;;;3.70;;
6077;SDS011;3067;49.470;10.394;2022-10-18T08:16:01;7.33;;;4.33;;
6077;SDS011;3067;49.470;10.394;2022-10-18T08:18:29;4.73;;;4.30;;
6077;SDS011;3067;49.470;10.394;2022-10-18T08:20:58;8.37;;;4.43;;
6077;SDS011;3067;49.470;10.394;2022-10-18T08:23:25;4.30;;;3.90;;
6077;SDS011;3067;49.470;10.394;2022-10-18T08:25:54;6.03;;;4.20;;
6077;SDS011;3067;49.470;10.394;2022-10-18T08:28:21;4.90;;;4.33;;
6077;SDS011;3067;49.470;10.394;2022-10-18T08:30:49;8.90;;;3.93;;
6077;SDS011;3067;49.470;10.394;2022-10-18T08:33:16;5.47;;;3.87;;
6077;SDS011;3067;49.470;10.394;2022-10-18T08:35:52;7.93;;;3.63;;
6077;SDS011;3067;49.470;10.394;2022-10-18T08:38:20;9.90;;;3.77;;
6077;SDS011;3067;49.470;10.394;2022-10-18T08:40:47;13.30;;;4.30;;
6077;SDS011;3067;49.470;10.394;2022-10-18T08:43:17;7.20;;;3.87;;
6077;SDS011;3067;49.470;10.394;2022-10-18T08:45:48;4.20;;;3.77;;
6077;SDS011;3067;49.470;10.394;2022-10-18T08:48:16;6.27;;;3.87;;
6077;SDS011;3067;49.470;10.394;2022-10-18T08:50:46;4.30;;;4.00;;
6077;SDS011;3067;49.470;10.394;2022-10-18T08:53:16;6.10;;;4.20;;
6077;SDS011;3067;49.470;10.394;2022-10-18T08:55:45;5.87;;;3.80;;
6077;SDS011;3067;49.470;10.394;2022-10-18T08:58:14;14.90;;;4.00;;
6077;SDS011;3067;49.470;10.394;2022-10-18T09:00:46;5.90;;;4.10;;
6077;SDS011;3067;49.470;10.394;2022-10-18T09:03:18;6.03;;;3.87;;
6077;SDS011;3067;49.470;10.394;2022-10-18T09:05:49;6.63;;;3.73;;
6077;SDS011;3067;49.470;10.394;2022-10-18T09:08:26;8.03;;;4.27;;
6077;SDS011;3067;49.470;10.394;2022-10-18T09:10:59;6.07;;;3.97;;
6077;SDS011;3067;49.470;10.394;2022-10-18T09:13:36;9.87;;;4.50;;
6077;SDS011;3067;49.470;10.394;2022-10-18T09:16:11;27.73;;;4.47;;
6077;SDS011;3067;49.470;10.394;2022-10-18T09:18:44;8.67;;;4.23;;
6077;SDS011;3067;49.470;10.394;2022-10-18T09:21:16;11.43;;;4.13;;
6077;SDS011;3067;49.470;10.394;2022-10-18T09:23:47;7.53;;;3.90;;
6077;SDS011;3067;49.470;10.394;2022-10-18T09:26:15;4.93;;;3.53;;
6077;SDS011;3067;49.470;10.394;2022-10-18T09:28:48;6.83;;;3.47;;
6077;SDS011;3067;49.470;10.394;2022-10-18T09:31:23;4.67;;;4.17;;
6077;SDS011;3067;49.470;10.394;2022-10-18T09:33:52;8.20;;;3.93;;
6077;SDS011;3067;49.470;10.394;2022-10-18T09:36:21;5.60;;;3.60;;
6077;SDS011;3067;49.470;10.394;2022-10-18T09:38:50;4.13;;;3.43;;
6077;SDS011;3067;49.470;10.394;2022-10-18T09:41:19;4.07;;;3.60;;
6077;SDS011;3067;49.470;10.394;2022-10-18T09:43:50;5.13;;;3.83;;
6077;SDS011;3067;49.470;10.394;2022-10-18T09:46:19;7.83;;;3.57;;
6077;SDS011;3067;49.470;10.394;2022-10-18T09:48:50;3.73;;;3.53;;
6077;SDS011;3067;49.470;10.394;2022-10-18T09:51:19;15.00;;;4.30;;
6077;SDS011;3067;49.470;10.394;2022-10-18T09:53:54;4.10;;;3.70;;
6077;SDS011;3067;49.470;10.394;2022-10-18T09:56:23;8.43;;;3.93;;
6077;SDS011;3067;49.470;10.394;2022-10-18T09:58:52;5.40;;;3.80;;
6077;SDS011;3067;49.470;10.394;2022-10-18T10:01:20;6.27;;;4.37;;
6077;SDS011;3067;49.470;10.394;2022-10-18T10:03:49;14.37;;;5.10;;
6077;SDS011;3067;49.470;10.394;2022-10-18T10:06:22;13.50;;;4.30;;
6077;SDS011;3067;49.470;10.394;2022-10-18T10:08:52;9.30;;;4.20;;
6077;SDS011;3067;49.470;10.394;2022-10-18T10:11:31;5.60;;;4.50;;
6077;SDS011;3067;49.470;10.394;2022-10-18T10:14:06;6.17;;;4.27;;
6077;SDS011;3067;49.470;10.394;2022-10-18T10:16:33;6.67;;;4.30;;
6077;SDS011;3067;49.470;10.394;2022-10-18T10:19:15;8.80;;;4.27;;
6077;SDS011;3067;49.470;10.394;2022-10-18T10:21:43;9.40;;;4.50;;
6077;SDS011;3067;49.470;10.394;2022-10-18T10:24:15;10.10;;;4.50;;
6077;SDS011;3067;49.470;10.394;2022-10-18T10:26:44;12.47;;;4.10;;
6077;SDS011;3067;49.470;10.394;2022-10-18T10:32:00;12.43;;;4.57;;
6077;SDS011;3067;49.470;10.394;2022-10-18T10:34:30;9.83;;;4.57;;
6077;SDS011;3067;49.470;10.394;2022-10-18T10:36:57;13.67;;;5.00;;
6077;SDS011;3067;49.470;10.394;2022-10-18T10:39:24;7.80;;;5.20;;
6077;SDS011;3067;49.470;10.394;2022-10-18T10:41:52;8.30;;;4.87;;
6077;SDS011;3067;49.470;10.394;2022-10-18T10:44:20;5.57;;;4.97;;
6077;SDS011;3067;49.470;10.394;2022-10-18T10:46:49;7.90;;;5.10;;
6077;SDS011;3067;49.470;10.394;2022-10-18T10:49:17;11.60;;;5.00;;
6077;SDS011;3067;49.470;10.394;2022-10-18T10:51:52;5.50;;;5.00;;
6077;SDS011;3067;49.470;10.394;2022-10-18T10:54:20;6.10;;;4.80;;
6077;SDS011;3067;49.470;10.394;2022-10-18T10:56:50;9.90;;;5.17;;
6077;SDS011;3067;49.470;10.394;2022-10-18T10:59:20;7.53;;;5.27;;
6077;SDS011;3067;49.470;10.394;2022-10-18T11:01:48;5.63;;;5.13;;
6077;SDS011;3067;49.470;10.394;2022-10-18T11:04:36;5.50;;;4.80;;
6077;SDS011;3067;49.470;10.394;2022-10-18T11:07:08;8.83;;;5.20;;
6077;SDS011;3067;49.470;10.394;2022-10-18T11:09:47;6.83;;;5.00;;
6077;SDS011;3067;49.470;10.394;2022-10-18T11:12:26;12.90;;;5.20;;
6077;SDS011;3067;49.470;10.394;2022-10-18T11:15:06;6.77;;;5.30;;
6077;SDS011;3067;49.470;10.394;2022-10-18T11:17:38;7.10;;;5.47;;
6077;SDS011;3067;49.470;10.394;2022-10-18T11:20:11;6.93;;;5.37;;
6077;SDS011;3067;49.470;10.394;2022-10-18T11:22:42;5.80;;;5.20;;
6077;SDS011;3067;49.470;10.394;2022-10-18T11:25:11;8.87;;;5.27;;
6077;SDS011;3067;49.470;10.394;2022-10-18T11:27:40;7.90;;;5.30;;
6077;SDS011;3067;49.470;10.394;2022-10-18T11:30:21;5.63;;;4.90;;
6077;SDS011;3067;49.470;10.394;2022-10-18T11:32:54;5.37;;;4.97;;
6077;SDS011;3067;49.470;10.394;2022-10-18T11:35:32;8.13;;;4.40;;
6077;SDS011;3067;49.470;10.394;2022-10-18T11:38:11;6.33;;;5.20;;
6077;SDS011;3067;49.470;10.394;2022-10-18T11:40:43;5.97;;;4.93;;
6077;SDS011;3067;49.470;10.394;2022-10-18T11:43:14;5.47;;;4.83;;
6077;SDS011;3067;49.470;10.394;2022-10-18T11:45:45;15.97;;;5.40;;
6077;SDS011;3067;49.470;10.394;2022-10-18T11:48:25;6.57;;;4.80;;
6077;SDS011;3067;49.470;10.394;2022-10-18T11:50:56;5.73;;;5.17;;
6077;SDS011;3067;49.470;10.394;2022-10-18T11:53:28;7.97;;;5.30;;
6077;SDS011;3067;49.470;10.394;2022-10-18T11:55:59;5.07;;;4.63;;
6077;SDS011;3067;49.470;10.394;2022-10-18T11:58:36;6.80;;;5.40;;
6077;SDS011;3067;49.470;10.394;2022-10-18T12:01:06;7.43;;;5.37;;
6077;SDS011;3067;49.470;10.394;2022-10-18T12:03:42;17.97;;;5.30;;
6077;SDS011;3067;49.470;10.394;2022-10-18T12:06:17;9.07;;;4.80;;
6077;SDS011;3067;49.470;10.394;2022-10-18T12:08:47;7.37;;;4.77;;
6077;SDS011;3067;49.470;10.394;2022-10-18T12:11:16;7.03;;;5.30;;
6077;SDS011;3067;49.470;10.394;2022-10-18T12:13:46;5.57;;;5.03;;
6077;SDS011;3067;49.470;10.394;2022-10-18T12:16:14;8.30;;;5.40;;
6077;SDS011;3067;49.470;10.394;2022-10-18T12:18:47;6.23;;;5.63;;
6077;SDS011;3067;49.470;10.394;2022-10-18T12:21:16;13.40;;;6.00;;
6077;SDS011;3067;49.470;10.394;2022-10-18T12:23:48;7.30;;;5.50;;
6077;SDS011;3067;49.470;10.394;2022-10-18T12:26:17;10.03;;;6.10;;
6077;SDS011;3067;49.470;10.394;2022-10-18T12:28:47;6.70;;;6.00;;
6077;SDS011;3067;49.470;10.394;2022-10-18T12:31:18;8.10;;;6.90;;
6077;SDS011;3067;49.470;10.394;2022-10-18T12:33:47;9.93;;;6.33;;
6077;SDS011;3067;49.470;10.394;2022-10-18T12:36:20;9.30;;;6.40;;
6077;SDS011;3067;49.470;10.394;2022-10-18T12:38:51;18.33;;;6.47;;
6077;SDS011;3067;49.470;10.394;2022-10-18T12:41:21;6.40;;;5.80;;
6077;SDS011;3067;49.470;10.394;2022-10-18T12:43:49;6.70;;;6.10;;
6077;SDS011;3067;49.470;10.394;2022-10-18T12:46:17;7.43;;;6.53;;
6077;SDS011;3067;49.470;10.394;2022-10-18T12:48:46;6.43;;;5.83;;
6077;SDS011;3067;49.470;10.394;2022-10-18T12:51:16;8.93;;;6.20;;
6077;SDS011;3067;49.470;10.394;2022-10-18T12:53:44;13.63;;;6.43;;
6077;SDS011;3067;49.470;10.394;2022-10-18T12:56:33;6.40;;;5.80;;
6077;SDS011;3067;49.470;10.394;2022-10-18T13:02:07;12.30;;;6.43;;
6077;SDS011;3067;49.470;10.394;2022-10-18T13:04:35;7.23;;;6.10;;
6077;SDS011;3067;49.470;10.394;2022-10-18T13:09:40;9.33;;;6.50;;
6077;SDS011;3067;49.470;10.394;2022-10-18T13:14:56;12.03;;;6.57;;
6077;SDS011;3067;49.470;10.394;2022-10-18T13:17:28;7.17;;;6.47;;
6077;SDS011;3067;49.470;10.394;2022-10-18T13:20:00;7.83;;;6.63;;
6077;SDS011;3067;49.470;10.394;2022-10-18T13:22:38;6.90;;;6.27;;
6077;SDS011;3067;49.470;10.394;2022-10-18T13:25:13;8.47;;;5.73;;
6077;SDS011;3067;49.470;10.394;2022-10-18T13:27:46;11.27;;;5.80;;
6077;SDS011;3067;49.470;10.394;2022-10-18T13:33:13;9.57;;;6.33;;
6077;SDS011;3067;49.470;10.394;2022-10-18T13:35:53;11.63;;;5.90;;
6077;SDS011;3067;49.470;10.394;2022-10-18T13:38:29;9.17;;;6.33;;
6077;SDS011;3067;49.470;10.394;2022-10-18T13:41:00;10.57;;;7.27;;
6077;SDS011;3067;49.470;10.394;2022-10-18T13:43:52;15.77;;;7.07;;
6077;SDS011;3067;49.470;10.394;2022-10-18T13:46:21;12.87;;;7.30;;
6077;SDS011;3067;49.470;10.394;2022-10-18T13:48:50;10.90;;;7.00;;
6077;SDS011;3067;49.470;10.394;2022-10-18T13:51:27;7.40;;;6.70;;
6077;SDS011;3067;49.470;10.394;2022-10-18T13:53:58;7.83;;;6.13;;
6077;SDS011;3067;49.470;10.394;2022-10-18T13:56:34;8.50;;;6.10;;
6077;SDS011;3067;49.470;10.394;2022-10-18T14:01:48;13.00;;;6.67;;
6077;SDS011;3067;49.470;10.394;2022-10-18T14:04:24;9.67;;;6.47;;
6077;SDS011;3067;49.470;10.394;2022-10-18T14:06:57;12.27;;;7.50;;
6077;SDS011;3067;49.470;10.394;2022-10-18T14:09:26;17.00;;;6.93;;
6077;SDS011;3067;49.470;10.394;2022-10-18T14:11:55;16.47;;;7.20;;
6077;SDS011;3067;49.470;10.394;2022-10-18T14:14:29;9.83;;;7.37;;
6077;SDS011;3067;49.470;10.394;2022-10-18T14:16:59;8.30;;;6.07;;
6077;SDS011;3067;49.470;10.394;2022-10-18T14:19:32;8.60;;;6.10;;
6077;SDS011;3067;49.470;10.394;2022-10-18T14:22:03;6.63;;;5.83;;
6077;SDS011;3067;49.470;10.394;2022-10-18T14:24:33;11.40;;;5.97;;
6077;SDS011;3067;49.470;10.394;2022-10-18T14:27:10;6.23;;;5.63;;
6077;SDS011;3067;49.470;10.394;2022-10-18T14:29:38;15.20;;;5.60;;
6077;SDS011;3067;49.470;10.394;2022-10-18T14:32:07;9.53;;;6.07;;
6077;SDS011;3067;49.470;10.394;2022-10-18T14:34:36;7.90;;;6.20;;
6077;SDS011;3067;49.470;10.394;2022-10-18T14:37:05;12.07;;;6.10;;
6077;SDS011;3067;49.470;10.394;2022-10-18T14:39:32;7.90;;;6.40;;
6077;SDS011;3067;49.470;10.394;2022-10-18T14:42:00;7.80;;;7.00;;
6077;SDS011;3067;49.470;10.394;2022-10-18T14:44:28;19.90;;;7.17;;
6077;SDS011;3067;49.470;10.394;2022-10-18T14:46:59;16.73;;;7.40;;
6077;SDS011;3067;49.470;10.394;2022-10-18T14:49:27;10.40;;;6.70;;
6077;SDS011;3067;49.470;10.394;2022-10-18T14:51:56;9.70;;;7.37;;
6077;SDS011;3067;49.470;10.394;2022-10-18T14:54:27;10.70;;;8.73;;
6077;SDS011;3067;49.470;10.394;2022-10-18T14:56:55;13.50;;;8.17;;
6077;SDS011;3067;49.470;10.394;2022-10-18T14:59:23;13.53;;;9.10;;
6077;SDS011;3067;49.470;10.394;2022-10-18T15:01:53;12.77;;;8.97;;
6077;SDS011;3067;49.470;10.394;2022-10-18T15:04:21;19.83;;;9.80;;
6077;SDS011;3067;49.470;10.394;2022-10-18T15:06:48;14.33;;;9.40;;
6077;SDS011;3067;49.470;10.394;2022-10-18T15:09:19;11.40;;;9.23;;
6077;SDS011;3067;49.470;10.394;2022-10-18T15:11:48;9.60;;;8.40;;
6077;SDS011;3067;49.470;10.394;2022-10-18T15:14:17;16.03;;;8.80;;
6077;SDS011;3067;49.470;10.394;2022-10-18T15:16:45;10.80;;;9.70;;
6077;SDS011;3067;49.470;10.394;2022-10-18T15:19:29;9.83;;;8.80;;
6077;SDS011;3067;49.470;10.394;2022-10-18T15:21:57;10.40;;;8.10;;
6077;SDS011;3067;49.470;10.394;2022-10-18T15:24:30;9.63;;;8.50;;
6077;SDS011;3067;49.470;10.394;2022-10-18T15:27:00;10.10;;;8.77;;